Marlinton, West Virginia
Current Conditions -  °F | °C
As of 6:15 PM on Friday 31 Oct 2014 (Local Time) from KHSP Reporting Station
Drizzle Drizzle  
Wind Chill:   Ceiling: 600
Heat Index:   Visibility: 5mi
Dew Point:   Wind: 3mph
Humidity: 96%   Direction: 270°W
Pressure: 29.78"   Gusts: NA
Location:  38.22°N, 80.09°W
Report Text: KHSP 312215Z AUTO 27003KT 5SM DZ BKN006 OVC010 03/02 A2978 RMK AO2 T00280022
Loading
Personal Weather Stations






























Interactive Weather Map
Tropical Storm Tracking
New forecast layout! Learn more

10-Day Weather Forecast

Advertisements
Track Severe Weather on mobile